Accueil
METAR-TAF:

METAR-TAF

Aéroports :

Aéroport international des Seychelles

Victoria, Mahé, Seychelles

latitude: 04-40S, longitude: 055-31E, altitude: 3 m

Observation

Le bulletin a été fait il y a 14 minutes, à 21:00 UTC
Vent 4 kt de direction variable
Température 24°C
Humidité 83%
Pression 1013 hPa

METAR: FSIA 172100Z AUTO VRB04KT //// R13///// // SCT021/// 24/21 Q1013

Heure: 01:14 (21:14 UTC)

Prévision

Le bulletin a été fait il y a 4 heures et 14 minutes, à 17:00 UTC
Prévision valable du 17 à 18 UTC au 18 à 18 UTC
Vent 15 kt de sud-est
Visibilité 10 km ou plus
Nuages épars à une hauteur de 1800 ft
Temporairement
du 18 à 02 UTC au 18 à 08 UTC
Quelques nuages à une hauteur de 1200 ft
Nuages fragmentés à une hauteur de 1800 ft
faibles averses de pluie

TAF: FSIA 171700Z 1718/1818 14015KT 9999 SCT018 TEMPO 1802/1808 -SHRA FEW012 BKN018

Observations et prévisions météorologiques de plus de 4000 aéroports (messages METAR et TAF).

Les stations disponibles sont représentées par des disques jaunes et rouges sur la carte.

Passer la souris dessus pour voir le nom de la station.

Cliquer dessus pour voir les observations et prévisions météorologiques.

Pour changer de carte: cliquez sur les boutons verts avec une croix noire pour zoomer, sur le bouton vert avec un tiret pour effectuer un zoom arrière, ou sur les flèches vertes pour les cartes adjacentes.


METAR-TAF: